createdAt,value
2022-11-19T00:00:58.197Z,3.67
2022-11-19T00:03:35.477Z,4.80
2022-11-19T00:06:07.128Z,4.65
2022-11-19T00:08:37.815Z,5.50
2022-11-19T00:11:10.077Z,4.38
2022-11-19T00:13:38.542Z,4.63
2022-11-19T00:16:10.493Z,4.88
2022-11-19T00:18:43.469Z,4.18
2022-11-19T00:21:15.915Z,4.85
2022-11-19T00:23:46.294Z,3.40
2022-11-19T00:26:17.720Z,3.70
2022-11-19T00:28:48.171Z,4.03
2022-11-19T00:31:19.042Z,3.42
2022-11-19T00:33:54.429Z,3.65
2022-11-19T00:36:25.341Z,3.93
2022-11-19T00:38:55.627Z,3.47
2022-11-19T00:41:25.993Z,3.70
2022-11-19T00:43:56.265Z,3.67
2022-11-19T00:46:28.578Z,3.17
2022-11-19T00:49:02.333Z,3.97
2022-11-19T00:51:33.732Z,3.08
2022-11-19T00:54:04.051Z,3.60
2022-11-19T00:56:34.423Z,3.93
2022-11-19T00:59:04.717Z,3.53
2022-11-19T01:01:35.170Z,4.27
2022-11-19T01:04:08.817Z,4.17
2022-11-19T01:06:39.134Z,4.57
2022-11-19T01:09:09.554Z,4.43
2022-11-19T01:11:40.555Z,3.80
2022-11-19T01:14:11.167Z,3.73
2022-11-19T01:16:42.280Z,4.37
2022-11-19T01:19:16.628Z,4.13
2022-11-19T01:21:47.297Z,3.73
2022-11-19T01:24:17.620Z,3.43
2022-11-19T01:26:47.980Z,3.87
2022-11-19T01:29:18.578Z,3.80
2022-11-19T01:31:49.074Z,3.92
2022-11-19T01:34:21.948Z,3.78
2022-11-19T01:36:55.091Z,4.20
2022-11-19T01:39:25.483Z,4.80
2022-11-19T01:41:55.804Z,5.13
2022-11-19T01:44:59.035Z,5.38
2022-11-19T01:47:29.337Z,3.57
2022-11-19T01:50:03.073Z,4.57
2022-11-19T01:52:33.723Z,5.07
2022-11-19T01:55:04.714Z,4.67
2022-11-19T01:57:35.393Z,3.93
2022-11-19T02:00:05.917Z,3.70
2022-11-19T02:02:37.395Z,5.03
2022-11-19T02:05:10.932Z,5.60
2022-11-19T02:07:46.068Z,5.53
2022-11-19T02:10:16.779Z,6.47
2022-11-19T02:12:51.598Z,6.03
2022-11-19T02:15:34.312Z,5.90
2022-11-19T02:18:10.210Z,6.47
2022-11-19T02:20:56.209Z,6.57
2022-11-19T02:23:45.735Z,6.37
2022-11-19T02:26:45.667Z,5.60
2022-11-19T02:29:29.059Z,6.57
2022-11-19T02:32:04.642Z,5.63
2022-11-19T02:34:43.196Z,6.00
2022-11-19T02:37:19.577Z,5.53
2022-11-19T02:39:53.618Z,6.30
2022-11-19T02:42:26.855Z,6.15
2022-11-19T02:45:03.925Z,6.50
2022-11-19T02:47:41.380Z,6.37
2022-11-19T02:50:16.100Z,5.87
2022-11-19T02:52:48.069Z,6.50
2022-11-19T02:55:20.374Z,6.17
2022-11-19T02:57:52.920Z,6.50
2022-11-19T03:00:35.971Z,6.43
2022-11-19T03:03:27.186Z,7.00
2022-11-19T03:06:01.872Z,6.17
2022-11-19T03:08:32.292Z,6.47
2022-11-19T03:11:10.865Z,5.97
2022-11-19T03:14:06.084Z,5.43
2022-11-19T03:16:44.642Z,5.13
2022-11-19T03:19:29.379Z,5.87
2022-11-19T03:24:35.432Z,4.87
2022-11-19T03:27:11.098Z,5.43
2022-11-19T03:29:45.626Z,6.90
2022-11-19T03:34:53.749Z,5.47
2022-11-19T03:37:26.956Z,6.63
2022-11-19T03:40:02.031Z,5.87
2022-11-19T03:42:33.369Z,5.87
2022-11-19T03:45:07.016Z,5.63
2022-11-19T03:47:38.849Z,6.05
2022-11-19T03:50:28.423Z,6.37
2022-11-19T03:53:04.131Z,5.33
2022-11-19T03:55:40.776Z,6.83
2022-11-19T03:58:13.495Z,5.90
2022-11-19T04:00:43.783Z,5.57
2022-11-19T04:03:14.052Z,5.37
2022-11-19T04:05:46.782Z,6.90
2022-11-19T04:08:17.071Z,4.77
2022-11-19T04:10:47.317Z,5.57
2022-11-19T04:13:17.613Z,5.18
2022-11-19T04:15:47.917Z,5.13
2022-11-19T04:18:18.319Z,5.17
2022-11-19T04:20:51.233Z,5.10
2022-11-19T04:23:21.565Z,4.60
2022-11-19T04:25:51.938Z,5.67
2022-11-19T04:28:22.262Z,5.27
2022-11-19T04:30:52.636Z,5.27
2022-11-19T04:33:22.934Z,5.07
2022-11-19T04:35:55.555Z,5.70
2022-11-19T04:38:25.856Z,5.40
2022-11-19T04:40:56.156Z,5.80
2022-11-19T04:43:26.415Z,4.43
2022-11-19T04:45:56.678Z,5.67
2022-11-19T04:48:26.947Z,4.50
2022-11-19T04:50:59.612Z,4.70
2022-11-19T04:53:30.085Z,5.43
2022-11-19T04:56:00.522Z,5.37
2022-11-19T04:58:30.834Z,4.70
2022-11-19T05:01:01.184Z,4.93
2022-11-19T05:03:31.269Z,4.87
2022-11-19T05:06:04.154Z,5.83
2022-11-19T05:08:34.670Z,5.33
2022-11-19T05:11:04.966Z,6.70
2022-11-19T05:13:35.228Z,6.10
2022-11-19T05:16:05.661Z,5.93
2022-11-19T05:18:35.946Z,6.37
2022-11-19T05:21:08.620Z,5.97
2022-11-19T05:23:38.938Z,7.67
2022-11-19T05:26:09.307Z,7.10
2022-11-19T05:28:40.203Z,7.03
2022-11-19T05:31:10.772Z,8.03
2022-11-19T05:33:41.147Z,6.87
2022-11-19T05:36:13.882Z,7.53
2022-11-19T05:38:44.139Z,7.70
2022-11-19T05:41:14.448Z,7.40
2022-11-19T05:43:44.702Z,7.90
2022-11-19T05:46:14.980Z,8.87
2022-11-19T05:48:45.228Z,8.20
2022-11-19T05:51:19.354Z,8.43
2022-11-19T05:53:49.505Z,9.38
2022-11-19T05:56:19.886Z,8.30
2022-11-19T05:58:50.179Z,10.03
2022-11-19T06:01:27.912Z,9.20
2022-11-19T06:03:58.413Z,9.03
2022-11-19T06:06:31.174Z,8.53
2022-11-19T06:09:01.503Z,8.73
2022-11-19T06:11:44.272Z,9.80
2022-11-19T06:14:14.335Z,8.27
2022-11-19T06:16:44.561Z,8.77
2022-11-19T06:19:15.081Z,10.17
2022-11-19T06:21:47.842Z,10.00
2022-11-19T06:24:18.135Z,10.83
2022-11-19T06:26:48.560Z,8.73
2022-11-19T06:29:20.044Z,9.03
2022-11-19T06:31:50.481Z,10.53
2022-11-19T06:34:20.894Z,10.20
2022-11-19T06:36:53.486Z,9.43
2022-11-19T06:39:23.857Z,11.27
2022-11-19T06:41:54.285Z,9.30
2022-11-19T06:44:24.735Z,10.53
2022-11-19T06:46:55.118Z,9.90
2022-11-19T06:49:26.029Z,10.03
2022-11-19T06:51:58.767Z,10.83
2022-11-19T06:54:29.061Z,10.27
2022-11-19T06:56:59.299Z,10.47
2022-11-19T06:59:29.593Z,10.07
2022-11-19T07:01:59.919Z,10.63
2022-11-19T07:04:30.241Z,11.30
2022-11-19T07:07:03.009Z,10.90
2022-11-19T07:09:33.363Z,11.40
2022-11-19T07:12:03.652Z,11.80
2022-11-19T07:14:33.919Z,10.57
2022-11-19T07:17:05.109Z,11.73
2022-11-19T07:19:35.382Z,10.37
2022-11-19T07:22:07.994Z,10.93
2022-11-19T07:24:38.488Z,8.83
2022-11-19T07:27:08.770Z,10.27
2022-11-19T07:29:39.017Z,10.67
2022-11-19T07:32:09.299Z,10.30
2022-11-19T07:34:39.662Z,9.40
2022-11-19T07:37:12.318Z,10.07
2022-11-19T07:39:42.571Z,9.63
2022-11-19T07:42:25.253Z,8.40
2022-11-19T07:44:55.990Z,8.77
2022-11-19T07:47:26.282Z,9.87
2022-11-19T07:49:56.611Z,9.23
2022-11-19T07:52:29.244Z,9.93
2022-11-19T07:54:59.619Z,10.27
2022-11-19T07:57:30.489Z,8.57
2022-11-19T08:00:01.078Z,9.80
2022-11-19T08:02:31.348Z,9.87
2022-11-19T08:05:01.651Z,9.03
2022-11-19T08:07:34.278Z,10.37
2022-11-19T08:10:06.806Z,10.23
2022-11-19T08:12:37.153Z,9.40
2022-11-19T08:15:07.888Z,9.80
2022-11-19T08:17:50.608Z,9.07
2022-11-19T08:20:20.862Z,9.97
2022-11-19T08:22:54.515Z,9.57
2022-11-19T08:25:24.798Z,11.05
2022-11-19T08:27:55.148Z,9.90
2022-11-19T08:30:25.495Z,10.07
2022-11-19T08:32:56.036Z,10.07
2022-11-19T08:35:26.363Z,8.87
2022-11-19T08:37:59.077Z,8.60
2022-11-19T08:40:29.422Z,9.97
2022-11-19T08:43:00.006Z,8.07
2022-11-19T08:45:32.030Z,8.20
2022-11-19T08:48:03.562Z,8.63
2022-11-19T08:50:34.441Z,10.00
2022-11-19T08:53:08.246Z,9.43
2022-11-19T08:55:38.572Z,8.90
2022-11-19T08:58:10.844Z,9.50
2022-11-19T09:00:41.209Z,9.93
2022-11-19T09:03:11.588Z,9.07
2022-11-19T09:05:42.189Z,10.30
2022-11-19T09:08:14.831Z,8.83
2022-11-19T09:10:45.114Z,10.33
2022-11-19T09:13:15.139Z,9.23
2022-11-19T09:15:45.400Z,8.80
2022-11-19T09:18:15.672Z,9.87
2022-11-19T09:20:46.118Z,8.97
2022-11-19T09:23:18.697Z,9.53
2022-11-19T09:25:48.943Z,9.33
2022-11-19T09:28:19.214Z,9.20
2022-11-19T09:30:57.811Z,9.20
2022-11-19T09:33:28.361Z,9.57
2022-11-19T09:35:58.621Z,9.33
2022-11-19T09:38:31.655Z,9.33
2022-11-19T09:41:15.413Z,9.47
2022-11-19T09:43:51.954Z,9.53
2022-11-19T09:46:29.894Z,9.13
2022-11-19T12:01:20.779Z,11.40
2022-11-19T12:06:33.504Z,9.77
2022-11-19T12:09:08.411Z,10.77
2022-11-19T12:11:59.599Z,10.27
2022-11-19T12:14:41.090Z,9.23
2022-11-19T12:17:28.387Z,10.47
2022-11-19T12:20:20.877Z,11.63
2022-11-19T12:23:09.816Z,10.50
2022-11-19T12:25:44.008Z,11.47
2022-11-19T12:28:41.165Z,10.98
2022-11-19T12:31:29.900Z,11.00
2022-11-19T12:34:27.370Z,10.77
2022-11-19T12:37:03.532Z,10.83
2022-11-19T12:39:44.651Z,10.93
2022-11-19T12:42:35.267Z,10.27
2022-11-19T12:45:15.653Z,10.10
2022-11-19T12:48:02.245Z,11.03
2022-11-19T12:50:45.823Z,10.87
2022-11-19T12:53:39.133Z,11.63
2022-11-19T12:56:20.399Z,11.93
2022-11-19T12:58:58.897Z,11.20
2022-11-19T13:01:33.580Z,11.80
2022-11-19T13:04:08.108Z,9.43
2022-11-19T13:09:20.517Z,8.77
2022-11-19T13:11:56.093Z,11.13
2022-11-19T13:14:35.250Z,11.07
2022-11-19T13:17:08.456Z,11.20
2022-11-19T13:19:41.021Z,11.63
2022-11-19T13:22:16.617Z,11.33
2022-11-19T13:24:50.062Z,11.70
2022-11-19T13:27:24.370Z,10.70
2022-11-19T13:29:57.755Z,12.63
2022-11-19T13:32:34.144Z,10.33
2022-11-19T13:35:16.309Z,10.73
2022-11-19T13:37:58.858Z,10.43
2022-11-19T13:40:33.615Z,11.47
2022-11-19T13:43:31.538Z,9.83
2022-11-19T13:46:19.271Z,9.23
2022-11-19T13:48:56.792Z,9.67
2022-11-19T13:51:35.197Z,11.73
2022-11-19T13:54:10.627Z,10.60
2022-11-19T13:56:48.905Z,9.60
2022-11-19T13:59:29.546Z,10.37
2022-11-19T14:02:27.158Z,10.57
2022-11-19T14:05:34.145Z,9.80
2022-11-19T14:08:26.786Z,9.93
2022-11-19T14:11:16.592Z,9.17
2022-11-19T14:14:37.350Z,9.47
2022-11-19T14:17:30.100Z,9.77
2022-11-19T14:20:13.269Z,9.13
2022-11-19T14:22:57.894Z,8.30
2022-11-19T14:25:56.238Z,9.70
2022-11-19T14:28:49.040Z,9.57
2022-11-19T14:31:20.702Z,9.60
2022-11-19T14:34:04.254Z,8.60
2022-11-19T14:36:46.403Z,7.53
2022-11-19T14:39:21.115Z,8.00
2022-11-19T14:42:14.993Z,9.20
2022-11-19T14:44:48.095Z,10.27
2022-11-19T14:47:37.653Z,8.10
2022-11-19T14:50:11.709Z,8.67
2022-11-19T14:52:54.643Z,8.73
2022-11-19T14:55:29.026Z,8.57
2022-11-19T15:00:37.941Z,7.03
2022-11-19T15:03:15.036Z,7.57
2022-11-19T15:05:47.564Z,7.87
2022-11-19T15:08:51.825Z,7.50
2022-11-19T15:11:22.863Z,6.83
2022-11-19T15:15:00.161Z,7.50
2022-11-19T15:17:35.411Z,7.23
2022-11-19T15:20:26.813Z,8.17
2022-11-19T15:23:08.331Z,8.37
2022-11-19T15:25:48.396Z,7.77
2022-11-19T15:28:28.818Z,8.10
2022-11-19T15:31:26.755Z,8.47
2022-11-19T15:34:49.178Z,8.33
2022-11-19T15:37:30.552Z,9.40
2022-11-19T15:40:01.158Z,11.80
2022-11-19T15:42:35.717Z,9.70
2022-11-19T15:47:45.128Z,10.73
2022-11-19T15:50:20.613Z,8.30
2022-11-19T15:53:04.061Z,8.20
2022-11-19T15:55:35.736Z,7.23
2022-11-19T15:58:13.671Z,18.90
2022-11-19T16:00:48.366Z,12.90
2022-11-19T16:03:19.383Z,10.73
2022-11-19T16:06:01.712Z,9.23
2022-11-19T16:08:35.187Z,8.47
2022-11-19T16:11:20.577Z,10.00
2022-11-19T16:14:07.971Z,10.93
2022-11-19T16:16:51.641Z,8.17
2022-11-19T16:19:22.301Z,9.00
2022-11-19T16:21:56.674Z,10.40
2022-11-19T16:24:42.831Z,6.80
2022-11-19T16:27:15.144Z,8.47
2022-11-19T16:29:46.653Z,11.30
2022-11-19T16:32:19.754Z,11.37
2022-11-19T16:34:50.557Z,8.87
2022-11-19T16:37:23.337Z,9.13
2022-11-19T16:39:56.457Z,8.80
2022-11-19T16:42:27.432Z,9.57
2022-11-19T16:44:59.270Z,10.23
2022-11-19T16:47:33.296Z,9.67
2022-11-19T16:50:05.696Z,10.00
2022-11-19T16:52:40.148Z,10.33
2022-11-19T16:58:06.241Z,12.37
2022-11-19T17:00:38.283Z,10.67
2022-11-19T17:03:21.236Z,11.90
2022-11-19T17:05:53.562Z,13.03
2022-11-19T17:08:26.134Z,15.73
2022-11-19T17:11:41.797Z,14.80
2022-11-19T17:14:22.613Z,10.70
2022-11-19T17:16:54.417Z,10.53
2022-11-19T17:19:29.506Z,11.20
2022-11-19T17:22:02.414Z,9.47
2022-11-19T17:24:37.051Z,12.73
2022-11-19T17:27:10.899Z,10.60
2022-11-19T17:29:40.963Z,8.50
2022-11-19T17:32:13.443Z,7.37
2022-11-19T17:34:49.211Z,8.37
2022-11-19T17:37:19.445Z,7.97
2022-11-19T17:39:49.734Z,10.77
2022-11-19T17:42:34.803Z,15.43
2022-11-19T17:45:10.609Z,12.23
2022-11-19T17:47:41.378Z,13.50
2022-11-19T17:50:11.809Z,9.30
2022-11-19T17:52:42.125Z,9.93
2022-11-19T17:55:18.919Z,9.57
2022-11-19T17:57:51.586Z,9.40
2022-11-19T18:00:21.977Z,8.93
2022-11-19T18:02:52.301Z,9.10
2022-11-19T18:05:25.851Z,7.50
2022-11-19T18:07:56.376Z,8.95
2022-11-19T18:10:26.678Z,10.03
2022-11-19T18:13:21.656Z,11.10
2022-11-19T18:15:52.008Z,9.15
2022-11-19T18:18:22.678Z,10.20
2022-11-19T18:20:58.957Z,7.47
2022-11-19T18:23:32.140Z,8.87
2022-11-19T18:26:02.390Z,13.17
2022-11-19T18:28:36.168Z,9.90
2022-11-19T18:31:06.265Z,9.35
2022-11-19T18:33:38.008Z,7.53
2022-11-19T18:36:08.726Z,7.93
2022-11-19T18:38:39.034Z,8.20
2022-11-19T18:41:09.285Z,8.50
2022-11-19T18:43:54.649Z,8.53
2022-11-19T18:46:24.997Z,7.93
2022-11-19T18:48:56.417Z,9.00
2022-11-19T18:51:27.335Z,9.73
2022-11-19T18:53:57.698Z,8.30
2022-11-19T18:56:27.992Z,9.50
2022-11-19T18:59:04.671Z,10.17
2022-11-19T19:01:35.409Z,8.77
2022-11-19T19:04:06.059Z,8.07
2022-11-19T19:06:36.475Z,8.00
2022-11-19T19:09:07.022Z,11.27
2022-11-19T19:11:49.733Z,10.90
2022-11-19T19:14:22.603Z,10.97
2022-11-19T19:16:53.773Z,9.20
2022-11-19T19:19:24.275Z,8.07
2022-11-19T19:21:54.606Z,9.87
2022-11-19T19:24:25.258Z,13.93
2022-11-19T19:26:55.618Z,12.87
2022-11-19T19:29:28.512Z,9.43
2022-11-19T19:31:58.871Z,10.13
2022-11-19T19:34:29.122Z,9.83
2022-11-19T19:36:59.885Z,9.40
2022-11-19T19:39:30.235Z,9.87
2022-11-19T19:42:00.534Z,9.10
2022-11-19T19:44:33.131Z,9.77
2022-11-19T19:47:04.951Z,12.40
2022-11-19T19:49:38.836Z,10.83
2022-11-19T19:52:09.361Z,10.38
2022-11-19T19:54:40.888Z,9.73
2022-11-19T19:57:11.598Z,11.67
2022-11-19T19:59:44.516Z,10.83
2022-11-19T20:02:14.844Z,16.27
2022-11-19T20:04:45.492Z,13.47
2022-11-19T20:07:16.065Z,13.10
2022-11-19T20:09:46.474Z,12.80
2022-11-19T20:12:16.906Z,11.30
2022-11-19T20:14:50.049Z,10.17
2022-11-19T20:17:20.387Z,11.87
2022-11-19T20:19:50.716Z,11.50
2022-11-19T20:22:21.077Z,10.77
2022-11-19T20:24:51.384Z,9.57
2022-11-19T20:27:21.724Z,10.30
2022-11-19T20:29:54.552Z,10.40
2022-11-19T20:32:24.938Z,10.13
2022-11-19T20:34:56.523Z,10.43
2022-11-19T20:37:26.896Z,9.13
2022-11-19T20:39:57.181Z,10.80
2022-11-19T20:42:39.903Z,10.63
2022-11-19T20:45:13.045Z,9.43
2022-11-19T20:47:43.291Z,12.57
2022-11-19T20:50:13.903Z,11.03
2022-11-19T20:52:44.218Z,12.00
2022-11-19T20:55:14.486Z,12.83
2022-11-19T20:57:44.801Z,11.50
2022-11-19T21:00:19.560Z,11.57
2022-11-19T21:02:49.828Z,10.10
2022-11-19T21:05:20.283Z,10.37
2022-11-19T21:07:50.613Z,11.27
2022-11-19T21:10:20.742Z,11.43
2022-11-19T21:13:03.715Z,12.10
2022-11-19T21:15:38.508Z,10.47
2022-11-19T21:18:08.903Z,12.73
2022-11-19T21:20:39.260Z,13.17
2022-11-19T21:23:09.618Z,10.17
2022-11-19T21:25:40.024Z,11.30
2022-11-19T21:28:10.465Z,11.23
2022-11-19T21:30:43.154Z,11.23
2022-11-19T21:33:13.644Z,11.83
2022-11-19T21:35:43.928Z,11.20
2022-11-19T21:38:14.174Z,10.93
2022-11-19T21:40:44.714Z,10.53
2022-11-19T21:43:14.954Z,11.33
2022-11-19T21:45:49.010Z,13.03
2022-11-19T21:48:19.582Z,10.73
2022-11-19T21:50:50.444Z,12.37
2022-11-19T21:53:21.146Z,11.53
2022-11-19T21:55:52.038Z,14.43
2022-11-19T21:58:22.319Z,15.77
2022-11-19T22:01:00.507Z,12.83
2022-11-19T22:03:32.441Z,12.23
2022-11-19T22:06:03.158Z,11.63
2022-11-19T22:08:33.613Z,12.33
2022-11-19T22:11:24.151Z,11.97
2022-11-19T22:13:54.547Z,13.83
2022-11-19T22:16:27.447Z,13.67
2022-11-19T22:18:57.782Z,13.57
2022-11-19T22:21:29.154Z,13.27
2022-11-19T22:23:59.589Z,10.90
2022-11-19T22:26:30.092Z,12.10
2022-11-19T22:29:00.419Z,11.17
2022-11-19T22:31:33.383Z,13.17
2022-11-19T22:34:03.669Z,9.40
2022-11-19T22:36:34.616Z,10.37
2022-11-19T22:39:05.043Z,11.17
2022-11-19T22:41:35.403Z,10.07
2022-11-19T22:44:05.695Z,10.97
2022-11-19T22:46:38.569Z,12.40
2022-11-19T22:49:09.007Z,11.57
2022-11-19T22:51:39.451Z,11.90
2022-11-19T22:54:11.651Z,10.80
2022-11-19T22:56:41.922Z,11.03
2022-11-19T22:59:12.180Z,11.83
2022-11-19T23:01:45.050Z,10.60
2022-11-19T23:04:16.915Z,10.73
2022-11-19T23:06:47.315Z,10.83
2022-11-19T23:09:17.813Z,12.23
2022-11-19T23:12:00.661Z,11.00
2022-11-19T23:14:31.213Z,11.47
2022-11-19T23:17:04.203Z,10.73
2022-11-19T23:19:34.540Z,11.07
2022-11-19T23:22:04.854Z,11.43
2022-11-19T23:24:35.202Z,10.60
2022-11-19T23:27:05.554Z,11.43
2022-11-19T23:29:36.923Z,10.70
2022-11-19T23:32:09.833Z,10.80
2022-11-19T23:34:40.191Z,10.83
2022-11-19T23:37:10.441Z,10.33
2022-11-19T23:39:40.979Z,10.47
2022-11-19T23:42:11.359Z,11.20
2022-11-19T23:44:41.663Z,13.97
2022-11-19T23:47:14.526Z,10.47
2022-11-19T23:49:44.861Z,10.87
2022-11-19T23:52:15.426Z,12.70
2022-11-19T23:54:45.727Z,12.60
2022-11-19T23:57:16.080Z,12.07
2022-11-19T23:59:46.443Z,10.73
